KLAW

Lawton-Fort Sill Regional Airport

Lawton, Oklahoma, USA
KLAW 221124Z 2212/2312 17014KT P6SM OVC025 FM221600 24014KT P6SM BKN030 BKN250 FM221800 34021G30KT P6SM SCT030 BKN250 FM230600 34012KT P6SM SKC
Issued Valid From Valid To
Jan-22 @ 11:24 UTC
(6 hours ago)
Jan-22 @ 12:00 UTC
(5 hours ago)
Jan-23 @ 12:00 UTC
(in 19 hours)
Expired Click to View Jan-22 @ 12:00 to Jan-22 @ 16:00
KLAW 221124Z 2212/2312 17014KT P6SM OVC025
Wind Visibility Clouds
170° at 14 knots Greater than 6 miles
  • Overcast at 2,500' AGL
From Jan-22 @ 16:00 to Jan-22 @ 18:00
FM221600 24014KT P6SM BKN030 BKN250
Wind Visibility Clouds
240° at 14 knots Greater than 6 miles
  • Broken at 3,000' AGL
  • Broken at 25,000' AGL
From Jan-22 @ 18:00 to Jan-23 @ 06:00
FM221800 34021G30KT P6SM SCT030 BKN250
Wind Visibility Clouds
340° at 21 knots
 Gusting to 30 knots
Greater than 6 miles
  • Scattered at 3,000' AGL
  • Broken at 25,000' AGL
From Jan-23 @ 06:00 to Jan-23 @ 12:00
FM230600 34012KT P6SM SKC
Wind Visibility Clouds
340° at 12 knots Greater than 6 miles
  • Clear skies
KLAW 221124Z 2212/2312 17014KT P6SM OVC025 FM221600 24014KT P6SM BKN030 BKN250 FM221800 34021G30KT P6SM SCT030 BKN250 FM230600 34012KT P6SM SKC
Issued Jan-22 @ 11:24 UTC
(6 hours ago)
Valid From Jan-22 @ 12:00 UTC
(5 hours ago)
Valid To Jan-23 @ 12:00 UTC
(in 19 hours)
Jan-22 @ 12:00 - Jan-22 @ 16:00
Wind Visibility
170° at 14 knots Greater than 6 miles
Clouds
  • Overcast at 2,500' AGL
From Jan-22 @ 16:00 - Jan-22 @ 18:00
Wind Visibility
240° at 14 knots Greater than 6 miles
Clouds
  • Broken at 3,000' AGL
  • Broken at 25,000' AGL
From Jan-22 @ 18:00 - Jan-23 @ 06:00
Wind Visibility
340° at 21 knots
 Gusting to 30 knots
Greater than 6 miles
Clouds
  • Scattered at 3,000' AGL
  • Broken at 25,000' AGL
From Jan-23 @ 06:00 - Jan-23 @ 12:00
Wind Visibility
340° at 12 knots Greater than 6 miles
Clouds
  • Clear skies